createdAt,value
2023-05-07T00:00:40.960Z,8.30
2023-05-07T00:04:58.082Z,9.60
2023-05-07T00:09:01.196Z,8.80
2023-05-07T00:13:03.149Z,9.50
2023-05-07T00:17:05.289Z,9.80
2023-05-07T00:21:07.003Z,8.30
2023-05-07T00:25:09.157Z,8.70
2023-05-07T00:29:11.456Z,8.30
2023-05-07T00:33:13.415Z,8.50
2023-05-07T00:37:15.062Z,9.30
2023-05-07T00:41:16.999Z,8.10
2023-05-07T00:45:18.714Z,9.60
2023-05-07T00:49:20.823Z,7.90
2023-05-07T00:53:22.672Z,7.30
2023-05-07T00:57:25.865Z,7.80
2023-05-07T01:01:27.815Z,6.80
2023-05-07T01:05:30.995Z,8.50
2023-05-07T01:09:33.349Z,9.80
2023-05-07T01:13:39.679Z,8.00
2023-05-07T01:21:48.846Z,8.80
2023-05-07T01:29:58.517Z,7.80
2023-05-07T01:34:02.633Z,8.40
2023-05-07T01:38:06.373Z,8.60
2023-05-07T01:42:08.133Z,9.20
2023-05-07T01:46:11.243Z,7.40
2023-05-07T01:50:13.828Z,9.40
2023-05-07T01:54:15.842Z,6.30
2023-05-07T01:58:17.658Z,7.60
2023-05-07T02:02:19.312Z,9.10
2023-05-07T02:06:21.495Z,8.00
2023-05-07T02:10:23.503Z,8.50
2023-05-07T02:14:26.406Z,7.50
2023-05-07T02:18:28.112Z,7.30
2023-05-07T02:22:30.778Z,9.10
2023-05-07T02:26:32.486Z,8.80
2023-05-07T02:30:34.237Z,8.90
2023-05-07T02:34:36.330Z,9.30
2023-05-07T02:38:39.547Z,10.20
2023-05-07T02:42:41.611Z,10.80
2023-05-07T02:46:43.571Z,12.50
2023-05-07T02:50:45.188Z,10.70
2023-05-07T02:54:47.015Z,11.00
2023-05-07T02:58:48.820Z,10.70
2023-05-07T03:02:50.564Z,11.40
2023-05-07T03:06:52.254Z,10.50
2023-05-07T03:10:54.027Z,11.40
2023-05-07T03:14:55.769Z,10.90
2023-05-07T03:18:57.652Z,10.50
2023-05-07T03:22:59.584Z,10.70
2023-05-07T03:27:01.556Z,11.00
2023-05-07T03:31:03.630Z,10.90
2023-05-07T03:35:06.011Z,12.10
2023-05-07T03:39:08.114Z,10.80
2023-05-07T03:43:10.498Z,10.50
2023-05-07T03:47:13.714Z,12.30
2023-05-07T03:51:16.147Z,11.40
2023-05-07T03:55:18.419Z,11.80
2023-05-07T03:59:21.045Z,12.00
2023-05-07T04:03:22.961Z,13.20
2023-05-07T04:07:25.819Z,13.20
2023-05-07T04:11:27.807Z,12.60
2023-05-07T04:15:30.005Z,12.30
2023-05-07T04:19:34.264Z,11.10
2023-05-07T04:23:35.957Z,11.40
2023-05-07T04:27:38.181Z,12.60
2023-05-07T04:31:39.850Z,14.00
2023-05-07T04:35:41.896Z,12.00
2023-05-07T04:39:43.732Z,12.60
2023-05-07T04:43:46.059Z,11.80
2023-05-07T04:47:48.351Z,13.40
2023-05-07T04:51:50.555Z,14.30
2023-05-07T04:55:59.013Z,13.30
2023-05-07T05:00:00.687Z,14.10
2023-05-07T05:04:02.677Z,12.40
2023-05-07T05:08:04.404Z,11.80
2023-05-07T05:12:07.649Z,10.50
2023-05-07T05:16:09.516Z,10.80
2023-05-07T05:20:12.212Z,10.80
2023-05-07T05:24:14.138Z,9.10
2023-05-07T05:28:15.907Z,8.70
2023-05-07T05:32:17.636Z,10.70
2023-05-07T05:36:19.434Z,7.90
2023-05-07T05:40:21.197Z,7.80
2023-05-07T05:44:22.857Z,6.30
2023-05-07T05:48:24.527Z,7.20
2023-05-07T05:52:26.411Z,5.50
2023-05-07T05:56:28.474Z,6.20
2023-05-07T06:00:30.639Z,6.10
2023-05-07T06:04:32.451Z,7.00
2023-05-07T06:08:33.998Z,6.90
2023-05-07T06:12:35.955Z,6.30
2023-05-07T06:16:38.519Z,7.60
2023-05-07T06:20:40.294Z,5.30
2023-05-07T06:24:41.866Z,5.80
2023-05-07T06:28:43.598Z,5.40
2023-05-07T06:32:45.230Z,4.90
2023-05-07T06:36:46.825Z,4.30
2023-05-07T06:40:49.999Z,5.20
2023-05-07T06:44:51.545Z,4.10
2023-05-07T06:48:53.082Z,3.90
2023-05-07T06:52:54.577Z,3.80
2023-05-07T06:56:56.044Z,3.20
2023-05-07T07:00:57.449Z,3.30
2023-05-07T07:04:58.981Z,3.70
2023-05-07T07:09:00.954Z,3.70
2023-05-07T07:13:02.517Z,4.50
2023-05-07T07:17:05.489Z,3.50
2023-05-07T07:21:06.982Z,4.00
2023-05-07T07:25:10.858Z,3.10
2023-05-07T07:29:12.673Z,4.00
2023-05-07T07:33:14.971Z,3.80
2023-05-07T07:37:16.499Z,4.60
2023-05-07T07:41:18.318Z,3.40
2023-05-07T07:45:20.055Z,2.90
2023-05-07T07:49:21.939Z,3.80
2023-05-07T07:53:23.924Z,7.30
2023-05-07T07:57:25.817Z,5.20
2023-05-07T08:01:27.484Z,6.40
2023-05-07T08:05:29.841Z,7.90
2023-05-07T08:09:31.461Z,6.20
2023-05-07T08:13:33.351Z,12.50
2023-05-07T08:17:34.948Z,15.40
2023-05-07T08:21:40.058Z,9.80
2023-05-07T08:25:42.916Z,7.30
2023-05-07T08:29:47.810Z,11.70
2023-05-07T08:33:51.870Z,7.60
2023-05-07T08:37:53.860Z,8.90
2023-05-07T08:41:57.655Z,4.80
2023-05-07T08:46:02.615Z,6.80
2023-05-07T08:50:05.877Z,4.20
2023-05-07T08:54:07.894Z,4.70
2023-05-07T08:58:09.512Z,4.80
2023-05-07T09:02:11.971Z,4.10
2023-05-07T09:06:14.034Z,3.50
2023-05-07T09:10:15.864Z,3.40
2023-05-07T09:14:17.617Z,4.90
2023-05-07T09:18:19.672Z,3.90
2023-05-07T09:22:21.462Z,5.60
2023-05-07T09:26:24.111Z,8.50
2023-05-07T09:30:33.084Z,7.30
2023-05-07T09:34:36.548Z,6.40
2023-05-07T09:38:38.977Z,6.30
2023-05-07T09:42:40.531Z,7.00
2023-05-07T09:46:44.989Z,7.40
2023-05-07T09:50:51.971Z,6.10
2023-05-07T09:54:56.271Z,6.70
2023-05-07T09:59:01.793Z,7.20
2023-05-07T10:03:05.549Z,7.60
2023-05-07T10:07:08.198Z,8.40
2023-05-07T10:11:10.104Z,7.80
2023-05-07T10:15:13.721Z,8.20
2023-05-07T10:19:16.897Z,8.60
2023-05-07T10:23:24.185Z,7.40
2023-05-07T10:27:27.012Z,8.70
2023-05-07T10:31:37.525Z,7.80
2023-05-07T10:35:41.972Z,8.40
2023-05-07T10:39:43.635Z,9.30
2023-05-07T10:43:46.252Z,7.30
2023-05-07T10:48:28.017Z,7.90
2023-05-07T10:52:30.918Z,5.90
2023-05-07T10:56:32.536Z,5.50
2023-05-07T11:04:39.284Z,6.90
2023-05-07T11:08:53.457Z,6.20
2023-05-07T11:12:55.791Z,6.00
2023-05-07T11:17:04.031Z,6.10
2023-05-07T11:21:06.564Z,11.90
2023-05-07T11:25:08.413Z,7.70
2023-05-07T11:29:23.494Z,6.10
2023-05-07T11:33:26.208Z,6.60
2023-05-07T11:37:30.108Z,4.90
2023-05-07T11:41:37.324Z,4.60
2023-05-07T11:45:40.303Z,3.90
2023-05-07T11:49:42.571Z,4.30
2023-05-07T11:53:45.832Z,4.60
2023-05-07T11:57:48.260Z,4.90
2023-05-07T12:01:50.488Z,3.60
2023-05-07T12:05:52.108Z,4.70
2023-05-07T12:09:54.380Z,4.60
2023-05-07T12:13:59.916Z,3.60
2023-05-07T12:18:01.893Z,3.40
2023-05-07T12:22:04.148Z,4.20
2023-05-07T12:26:07.455Z,3.80
2023-05-07T12:30:11.130Z,5.80
2023-05-07T12:34:12.708Z,4.80
2023-05-07T12:38:16.682Z,4.10
2023-05-07T12:42:26.820Z,4.20
2023-05-07T12:46:29.126Z,5.60
2023-05-07T12:50:34.230Z,4.50
2023-05-07T12:54:38.367Z,5.00
2023-05-07T12:58:40.153Z,4.60
2023-05-07T13:02:46.820Z,5.20
2023-05-07T13:06:48.859Z,5.40
2023-05-07T13:10:50.611Z,4.10
2023-05-07T13:14:52.156Z,4.10
2023-05-07T13:18:54.021Z,4.60
2023-05-07T13:22:55.930Z,4.60
2023-05-07T13:26:57.953Z,3.90
2023-05-07T13:31:00.197Z,4.80
2023-05-07T13:35:02.058Z,4.30
2023-05-07T13:39:04.924Z,4.80
2023-05-07T13:43:06.968Z,4.70
2023-05-07T13:47:08.796Z,3.60
2023-05-07T13:51:10.693Z,2.70
2023-05-07T13:55:13.843Z,5.10
2023-05-07T13:59:16.187Z,3.70
2023-05-07T14:03:19.992Z,4.20
2023-05-07T14:07:21.686Z,4.10
2023-05-07T14:11:27.141Z,4.40
2023-05-07T14:15:28.811Z,3.90
2023-05-07T14:19:31.809Z,4.00
2023-05-07T14:23:42.080Z,5.60
2023-05-07T14:27:44.097Z,4.90
2023-05-07T14:31:46.536Z,4.20
2023-05-07T14:35:49.925Z,4.50
2023-05-07T14:39:51.821Z,4.90
2023-05-07T14:43:53.544Z,5.40
2023-05-07T14:47:55.999Z,5.70
2023-05-07T14:51:59.880Z,6.60
2023-05-07T14:56:01.626Z,4.90
2023-05-07T15:00:05.169Z,6.20
2023-05-07T15:04:07.027Z,6.40
2023-05-07T15:08:09.062Z,6.90
2023-05-07T15:12:15.539Z,5.20
2023-05-07T15:16:18.107Z,4.60
2023-05-07T15:20:22.652Z,5.50
2023-05-07T15:25:12.955Z,5.80
2023-05-07T15:29:14.850Z,5.80
2023-05-07T15:33:16.433Z,4.80
2023-05-07T15:37:17.841Z,5.10
2023-05-07T15:41:19.432Z,5.40
2023-05-07T15:45:27.998Z,5.00
2023-05-07T15:49:29.456Z,5.70
2023-05-07T15:53:31.186Z,7.10
2023-05-07T15:57:33.002Z,7.40
2023-05-07T16:01:34.493Z,7.50
2023-05-07T16:05:36.225Z,5.30
2023-05-07T16:09:37.548Z,5.70
2023-05-07T16:14:28.978Z,5.70
2023-05-07T16:18:30.394Z,4.90
2023-05-07T16:22:32.466Z,5.80
2023-05-07T16:26:34.248Z,4.70
2023-05-07T16:30:35.564Z,4.50
2023-05-07T16:34:36.985Z,4.40
2023-05-07T16:38:38.339Z,4.50
2023-05-07T16:42:39.806Z,5.40
2023-05-07T16:46:41.178Z,4.50
2023-05-07T16:50:43.816Z,5.30
2023-05-07T16:54:45.311Z,5.50
2023-05-07T16:58:46.784Z,6.20
2023-05-07T17:02:48.386Z,5.20
2023-05-07T17:06:50.112Z,5.50
2023-05-07T17:10:51.544Z,5.70
2023-05-07T17:14:58.698Z,6.20
2023-05-07T17:19:00.026Z,5.30
2023-05-07T17:23:01.519Z,5.20
2023-05-07T17:27:02.989Z,4.20
2023-05-07T17:31:05.066Z,5.20
2023-05-07T17:35:06.911Z,5.30
2023-05-07T17:39:10.823Z,4.90
2023-05-07T17:43:12.269Z,5.20
2023-05-07T17:47:13.725Z,5.70
2023-05-07T17:51:15.090Z,5.30
2023-05-07T17:55:16.464Z,4.50
2023-05-07T17:59:17.977Z,4.30
2023-05-07T18:03:20.098Z,5.20
2023-05-07T18:07:21.535Z,4.90
2023-05-07T18:11:23.870Z,4.60
2023-05-07T18:15:25.416Z,4.40
2023-05-07T18:19:27.358Z,5.60
2023-05-07T18:23:30.091Z,5.20
2023-05-07T18:27:31.408Z,4.70
2023-05-07T18:31:34.196Z,4.50
2023-05-07T18:35:37.344Z,3.90
2023-05-07T18:39:38.897Z,5.70
2023-05-07T18:43:40.332Z,6.90
2023-05-07T18:47:41.794Z,5.50
2023-05-07T18:51:44.316Z,6.60
2023-05-07T18:55:52.558Z,5.40
2023-05-07T18:59:57.049Z,4.70
2023-05-07T19:03:58.464Z,4.10
2023-05-07T19:07:59.971Z,4.70
2023-05-07T19:12:02.812Z,5.60
2023-05-07T19:16:05.039Z,3.70
2023-05-07T19:24:13.841Z,5.20
2023-05-07T19:28:15.781Z,5.90
2023-05-07T19:32:17.164Z,5.70
2023-05-07T19:36:19.757Z,5.20
2023-05-07T19:40:21.170Z,6.00
2023-05-07T19:44:24.386Z,7.50
2023-05-07T19:48:25.724Z,6.50
2023-05-07T19:52:27.069Z,6.00
2023-05-07T19:56:36.939Z,5.20
2023-05-07T20:00:38.316Z,6.40
2023-05-07T20:04:39.697Z,7.60
2023-05-07T20:08:42.670Z,6.40
2023-05-07T20:12:44.027Z,5.10
2023-05-07T20:16:45.399Z,6.80
2023-05-07T20:20:47.186Z,7.00
2023-05-07T20:24:48.718Z,6.80
2023-05-07T20:28:50.215Z,7.30
2023-05-07T20:32:51.711Z,6.70
2023-05-07T20:36:53.109Z,5.80
2023-05-07T20:40:54.854Z,6.40
2023-05-07T20:44:56.285Z,6.10
2023-05-07T20:48:57.895Z,5.00
2023-05-07T20:52:59.579Z,6.10
2023-05-07T20:57:01.128Z,6.90
2023-05-07T21:01:03.650Z,4.90
2023-05-07T21:05:05.505Z,7.20
2023-05-07T21:09:16.057Z,6.90
2023-05-07T21:13:18.017Z,6.80
2023-05-07T21:17:19.437Z,6.70
2023-05-07T21:21:20.772Z,6.10
2023-05-07T21:25:22.127Z,5.40
2023-05-07T21:29:23.891Z,6.30
2023-05-07T21:33:25.776Z,5.90
2023-05-07T21:37:27.226Z,6.80
2023-05-07T21:41:28.590Z,6.40
2023-05-07T21:45:30.053Z,6.20
2023-05-07T21:49:31.486Z,6.00
2023-05-07T21:53:33.579Z,6.00
2023-05-07T21:57:36.826Z,5.00
2023-05-07T22:01:38.203Z,4.70
2023-05-07T22:05:39.823Z,5.50
2023-05-07T22:09:46.243Z,5.10
2023-05-07T22:13:47.648Z,5.40
2023-05-07T22:17:49.119Z,5.30
2023-05-07T22:21:50.511Z,6.20
2023-05-07T22:25:52.221Z,5.90
2023-05-07T22:30:27.897Z,5.20
2023-05-07T22:34:29.752Z,5.40
2023-05-07T22:38:32.376Z,5.70
2023-05-07T22:42:35.852Z,5.50
2023-05-07T22:46:38.994Z,4.80
2023-05-07T22:50:41.691Z,4.40
2023-05-07T22:54:44.137Z,4.70
2023-05-07T22:58:46.711Z,4.70
2023-05-07T23:02:48.965Z,6.50
2023-05-07T23:06:50.741Z,5.40
2023-05-07T23:10:54.965Z,5.30
2023-05-07T23:14:57.698Z,5.10
2023-05-07T23:18:59.736Z,6.90
2023-05-07T23:23:01.675Z,5.80
2023-05-07T23:27:05.325Z,6.10
2023-05-07T23:31:08.368Z,7.00
2023-05-07T23:35:10.809Z,6.90
2023-05-07T23:39:12.560Z,7.20
2023-05-07T23:43:14.249Z,7.20
2023-05-07T23:47:16.081Z,5.40
2023-05-07T23:51:19.711Z,6.70
2023-05-07T23:55:22.576Z,5.80
2023-05-07T23:59:24.581Z,5.10
